Time;durP1;ratioP1;P1;durP2;ratioP2;P2;SDS_P1;SDS_P2;PMS_P1;PMS_P2;Temp;Humidity;BMP_temperature;BMP_pressure;BME280_temperature;BME280_humidity;BME280_pressure;Samples;Min_cycle;Max_cycle;Signal;HPM_P1;HPM_P2
2022/03/11 00:00:40;;;;;;;9.93;6.15;;;;;;;-2.65;66.61;95607.78;5034039;28;20203;-81
2022/03/11 00:03:07;;;;;;;7.68;6.57;;;;;;;-2.65;67.06;95618.91;5034005;28;20206;-80
2022/03/11 00:12:17;;;;;;;7.72;6.15;;;;;;;-2.66;66.86;95612.09;5032151;28;20227;-81
2022/03/11 00:14:44;;;;;;;10.07;7.32;;;;;;;-2.73;66.48;95597.69;5033917;28;20189;-80
2022/03/11 00:17:12;;;;;;;11.77;6.43;;;;;;;-2.71;67.30;95603.63;5033559;28;20276;-80
2022/03/11 00:19:39;;;;;;;8.20;6.13;;;;;;;-2.78;66.33;95609.78;5033863;28;20597;-81
2022/03/11 00:22:06;;;;;;;6.15;5.03;;;;;;;-2.84;65.67;95608.22;5033442;28;20211;-81
2022/03/11 00:24:33;;;;;;;9.23;6.47;;;;;;;-2.84;65.83;95608.22;5033002;28;20222;-81
2022/03/11 00:27:00;;;;;;;7.22;6.50;;;;;;;-2.88;66.13;95603.19;5031208;28;20293;-81
2022/03/11 00:29:27;;;;;;;11.13;6.30;;;;;;;-2.81;66.27;95600.44;5033089;28;20220;-82
2022/03/11 00:31:54;;;;;;;8.55;6.50;;;;;;;-2.79;66.35;95600.41;5033684;28;20211;-80
2022/03/11 00:34:22;;;;;;;12.18;7.82;;;;;;;-2.77;65.63;95597.78;5033435;28;20661;-80
2022/03/11 00:36:49;;;;;;;8.63;5.80;;;;;;;-2.82;65.89;95591.03;5033256;28;20547;-80
2022/03/11 00:39:16;;;;;;;11.30;6.03;;;;;;;-2.79;66.07;95597.00;5031323;28;20214;-81
2022/03/11 00:41:43;;;;;;;7.20;5.97;;;;;;;-2.83;65.85;95589.34;5033494;28;20198;-80
2022/03/11 00:44:10;;;;;;;5.80;5.20;;;;;;;-2.83;65.76;95583.38;5033317;28;20195;-80
2022/03/11 00:50:04;;;;;;;17.45;7.05;;;;;;;-2.86;65.21;95589.41;5033261;28;20229;-80
2022/03/11 00:52:31;;;;;;;6.47;5.85;;;;;;;-2.86;65.24;95594.56;5047720;28;20207;-80
2022/03/11 00:54:58;;;;;;;7.90;5.78;;;;;;;-2.91;65.17;95587.81;5033138;28;20198;-80
2022/03/11 00:57:25;;;;;;;6.78;5.53;;;;;;;-3.00;65.56;95586.28;5033133;28;20640;-81
2022/03/11 00:59:52;;;;;;;9.02;6.15;;;;;;;-3.07;65.41;95583.88;5033287;28;20193;-81
2022/03/11 01:15:47;;;;;;;9.10;6.10;;;;;;;-3.41;66.71;95592.28;5036003;28;20197;-81
2022/03/11 01:18:14;;;;;;;6.45;5.28;;;;;;;-3.45;66.28;95588.09;5037088;28;20276;-81
2022/03/11 01:20:40;;;;;;;8.45;6.97;;;;;;;-3.49;66.77;95594.97;5002172;28;20201;-81
2022/03/11 01:23:07;;;;;;;7.80;6.18;;;;;;;-3.46;66.69;95591.53;5036752;28;20196;-80
2022/03/11 01:25:46;;;;;;;7.00;5.60;;;;;;;-3.40;66.96;95596.53;5036601;28;20197;-80
2022/03/11 01:28:13;;;;;;;9.05;6.00;;;;;;;-3.44;66.99;95584.66;5036592;28;20210;-80
2022/03/11 01:30:43;;;;;;;7.50;5.43;;;;;;;-3.40;67.11;95590.56;5036613;28;20232;-80
2022/03/11 01:33:12;;;;;;;6.00;5.32;;;;;;;-3.48;67.13;95594.09;5036785;28;20938;-81
2022/03/11 01:35:39;;;;;;;6.75;6.05;;;;;;;-3.53;66.91;95595.06;5018495;28;20205;-80
2022/03/11 01:38:06;;;;;;;6.00;4.65;;;;;;;-3.58;66.95;95596.88;5036401;28;20207;-81
2022/03/11 01:40:33;;;;;;;13.23;6.90;;;;;;;-3.60;66.36;95596.06;5036283;28;20258;-80
2022/03/11 01:43:00;;;;;;;8.80;6.70;;;;;;;-3.61;66.50;95602.91;5036600;28;20203;-81
2022/03/11 01:45:27;;;;;;;14.52;6.80;;;;;;;-3.65;66.59;95590.19;5036615;28;20189;-80
2022/03/11 01:48:14;;;;;;;7.22;5.65;;;;;;;-3.52;66.11;95607.00;5036454;28;20214;-80
2022/03/11 01:50:42;;;;;;;6.93;5.40;;;;;;;-3.50;65.56;95603.53;5036425;28;20274;-80
2022/03/11 01:53:10;;;;;;;7.65;6.10;;;;;;;-3.49;65.97;95592.41;5036098;28;20541;-80
2022/03/11 01:55:38;;;;;;;6.90;5.60;;;;;;;-3.53;65.76;95584.81;5035974;28;20186;-80
2022/03/11 01:58:07;;;;;;;7.45;6.65;;;;;;;-3.51;65.65;95595.88;5036332;28;20188;-80
2022/03/11 02:00:38;;;;;;;9.52;6.35;;;;;;;-3.48;66.54;95598.38;5017692;28;20204;-80
2022/03/11 02:03:05;;;;;;;13.77;7.47;;;;;;;-3.54;65.79;95598.50;5036433;28;20226;-80
2022/03/11 02:05:33;;;;;;;11.63;7.38;;;;;;;-3.59;65.74;95605.44;5036221;28;20197;-81
2022/03/11 02:08:00;;;;;;;12.02;5.72;;;;;;;-3.62;66.08;95601.22;5035951;28;20203;-80
2022/03/11 02:10:29;;;;;;;8.43;6.05;;;;;;;-3.62;66.46;95595.25;5035747;28;20224;-79
2022/03/11 02:12:57;;;;;;;10.23;7.32;;;;;;;-3.63;66.39;95599.53;5036024;28;20240;-80
2022/03/11 02:15:25;;;;;;;13.48;9.00;;;;;;;-3.68;66.22;95597.94;5035821;28;20276;-81
2022/03/11 02:17:51;;;;;;;11.82;8.13;;;;;;;-3.65;65.94;95595.31;5000350;28;20200;-80
2022/03/11 02:20:18;;;;;;;9.50;6.10;;;;;;;-3.68;66.15;95595.38;5035640;28;20193;-80
2022/03/11 02:26:09;;;;;;;11.77;6.18;;;;;;;-3.79;66.21;95598.09;5034770;28;20200;-80
2022/03/11 02:28:36;;;;;;;7.00;5.90;;;;;;;-3.84;66.02;95594.78;5035521;28;20556;-80
2022/03/11 02:31:03;;;;;;;7.75;6.20;;;;;;;-3.94;66.07;95598.38;5035633;28;20706;-80
2022/03/11 02:33:30;;;;;;;9.00;6.70;;;;;;;-4.08;66.66;95596.03;5035466;28;20707;-80
2022/03/11 02:35:57;;;;;;;9.20;6.82;;;;;;;-4.10;67.22;95600.34;5035915;28;20559;-80
2022/03/11 02:38:24;;;;;;;9.75;6.40;;;;;;;-4.12;68.86;95607.22;5035801;28;20243;-80
2022/03/11 02:40:51;;;;;;;7.70;6.15;;;;;;;-4.11;68.13;95606.34;5035638;28;20231;-79
2022/03/11 02:43:19;;;;;;;8.07;6.53;;;;;;;-4.14;68.23;95606.41;5035104;28;20204;-79
2022/03/11 02:45:46;;;;;;;8.75;6.43;;;;;;;-4.18;68.62;95599.66;5035542;28;20205;-79
2022/03/11 02:48:13;;;;;;;6.90;6.15;;;;;;;-4.20;67.96;95596.25;5035456;28;20207;-80
2022/03/11 02:50:40;;;;;;;12.07;6.75;;;;;;;-4.15;68.16;95603.00;5035135;28;20225;-80
2022/03/11 02:53:07;;;;;;;9.00;7.05;;;;;;;-4.15;67.83;95604.72;5034752;28;20716;-79
2022/03/11 02:55:34;;;;;;;8.80;6.68;;;;;;;-4.15;68.11;95612.41;5034703;28;20212;-78
2022/03/11 02:58:01;;;;;;;8.10;6.38;;;;;;;-4.15;67.95;95620.09;5035228;28;20211;-80
2022/03/11 03:00:29;;;;;;;10.73;7.47;;;;;;;-4.19;67.95;95619.28;5035222;28;20188;-80
2022/03/11 03:02:56;;;;;;;7.15;6.00;;;;;;;-4.22;67.56;95616.78;5035173;28;20227;-80
2022/03/11 03:05:23;;;;;;;8.27;6.28;;;;;;;-4.24;67.90;95610.84;5035141;28;20637;-80
2022/03/11 03:07:51;;;;;;;7.15;6.00;;;;;;;-4.24;67.69;95610.84;5034654;28;20192;-80
2022/03/11 03:10:18;;;;;;;10.02;7.00;;;;;;;-4.30;67.40;95610.09;5034597;28;20721;-81
2022/03/11 03:12:45;;;;;;;8.25;5.72;;;;;;;-4.33;67.57;95611.00;4999937;28;20828;-79
2022/03/11 03:15:12;;;;;;;10.07;6.80;;;;;;;-4.39;67.79;95614.47;5016530;28;20234;-81
2022/03/11 03:17:40;;;;;;;9.50;6.78;;;;;;;-4.45;67.97;95614.56;5035003;28;20288;-79
2022/03/11 03:20:09;;;;;;;9.73;6.15;;;;;;;-4.51;68.28;95616.41;5016322;28;20299;-81
2022/03/11 03:22:36;;;;;;;7.50;6.25;;;;;;;-4.53;68.84;95613.84;5034857;28;20229;-80
2022/03/11 03:28:25;;;;;;;8.85;6.53;;;;;;;-4.56;68.75;95608.78;5033570;28;20199;-80
2022/03/11 03:30:52;;;;;;;9.27;6.78;;;;;;;-4.67;69.23;95616.59;5034371;28;20306;-79
2022/03/11 03:33:20;;;;;;;10.32;6.55;;;;;;;-4.73;69.07;95615.84;5034215;28;20660;-80
2022/03/11 03:35:47;;;;;;;7.75;6.00;;;;;;;-4.73;70.13;95621.81;5034352;28;20207;-80
2022/03/11 03:38:16;;;;;;;9.48;6.60;;;;;;;-4.86;69.80;95604.09;5033959;28;20216;-80
2022/03/11 03:40:43;;;;;;;9.50;7.25;;;;;;;-4.77;69.42;95617.63;5034352;28;20242;-78
2022/03/11 03:43:09;;;;;;;8.27;7.07;;;;;;;-4.78;69.53;95623.59;5034217;28;20931;-80
2022/03/11 03:45:36;;;;;;;9.45;6.70;;;;;;;-4.87;69.81;95608.38;5034604;28;20204;-80
2022/03/11 03:48:03;;;;;;;11.77;6.95;;;;;;;-4.88;69.64;95609.25;5034000;28;20203;-80
2022/03/11 03:50:32;;;;;;;15.88;7.95;;;;;;;-4.87;69.82;95621.19;5034349;28;20216;-81
2022/03/11 03:52:59;;;;;;;13.98;9.38;;;;;;;-4.90;69.69;95622.94;5033996;28;20188;-81
2022/03/11 04:02:09;;;;;;;10.13;6.68;;;;;;;-5.00;70.52;95622.19;5032976;28;20246;-81
2022/03/11 04:04:36;;;;;;;12.80;6.60;;;;;;;-5.00;70.87;95633.28;4999381;28;20677;-81
2022/03/11 04:07:05;;;;;;;12.25;7.28;;;;;;;-4.95;70.94;95627.25;5034028;28;20188;-80
2022/03/11 04:09:33;;;;;;;12.45;7.03;;;;;;;-4.92;70.64;95627.19;5033666;28;20232;-81
2022/03/11 04:12:00;;;;;;;9.73;7.03;;;;;;;-4.97;70.51;95626.41;5033877;28;20218;-80
2022/03/11 04:14:27;;;;;;;11.38;8.93;;;;;;;-4.94;70.21;95634.91;5033550;28;20203;-80
2022/03/11 04:16:55;;;;;;;9.20;7.10;;;;;;;-5.04;70.38;95631.63;5033824;28;20187;-81
2022/03/11 04:22:46;;;;;;;9.35;6.88;;;;;;;-5.08;70.66;95645.31;5031805;28;20619;-81
2022/03/11 04:25:14;;;;;;;12.93;6.93;;;;;;;-5.07;70.78;95646.16;5032935;28;20204;-81
2022/03/11 04:27:41;;;;;;;10.50;7.47;;;;;;;-5.05;70.88;95660.63;5033231;28;20204;-80
2022/03/11 04:30:09;;;;;;;7.53;6.13;;;;;;;-5.05;70.31;95655.50;5033617;28;20195;-79
2022/03/11 04:32:36;;;;;;;10.43;7.00;;;;;;;-5.17;69.77;95650.56;5033575;28;20192;-80
2022/03/11 04:35:04;;;;;;;12.27;7.78;;;;;;;-5.17;70.06;95655.69;5033639;28;20631;-80
2022/03/11 04:40:54;;;;;;;11.48;7.55;;;;;;;-5.16;70.26;95659.94;5022442;28;20254;-80
2022/03/11 04:43:21;;;;;;;12.07;9.15;;;;;;;-5.17;69.81;95658.22;5032972;28;20203;-80
2022/03/11 04:45:48;;;;;;;14.63;8.75;;;;;;;-5.06;74.46;95653.81;5033651;28;20211;-83
2022/03/11 04:48:16;;;;;;;9.43;8.23;;;;;;;-4.89;73.49;95660.44;5031536;28;20205;-81
2022/03/11 04:50:43;;;;;;;12.20;7.93;;;;;;;-4.85;71.62;95652.72;5014837;28;20233;-80
2022/03/11 04:53:10;;;;;;;12.10;7.80;;;;;;;-4.81;70.48;95663.75;5033525;28;20191;-81
2022/03/11 04:55:56;;;;;;;11.45;8.77;;;;;;;-4.79;70.73;95667.13;5033082;28;21003;-80
2022/03/11 04:58:24;;;;;;;11.38;7.68;;;;;;;-4.74;69.83;95657.69;5033131;28;20195;-79
2022/03/11 05:00:51;;;;;;;14.02;8.15;;;;;;;-4.68;70.47;95658.44;5032753;28;20639;-80
2022/03/11 05:03:18;;;;;;;10.05;7.82;;;;;;;-4.57;69.87;95660.88;5033134;28;20204;-80
2022/03/11 05:05:45;;;;;;;15.32;8.98;;;;;;;-4.52;69.68;95656.53;5033453;28;20678;-80
2022/03/11 05:08:12;;;;;;;14.80;7.30;;;;;;;-4.50;68.96;95662.47;5033801;28;20265;-82
2022/03/11 05:10:39;;;;;;;10.52;7.10;;;;;;;-4.52;68.54;95663.34;5032901;28;20211;-80
2022/03/11 05:13:08;;;;;;;22.92;8.43;;;;;;;-4.68;68.09;95676.34;5033418;28;20185;-80
2022/03/11 05:15:37;;;;;;;10.95;7.20;;;;;;;-4.75;68.42;95671.34;5033253;28;20541;-80
2022/03/11 05:24:48;;;;;;;9.15;7.10;;;;;;;-4.83;68.96;95680.84;5031985;28;20199;-79
2022/03/11 05:27:15;;;;;;;15.73;8.48;;;;;;;-4.84;69.13;95679.16;5032776;28;20193;-80
2022/03/11 05:29:43;;;;;;;10.32;7.10;;;;;;;-4.76;69.70;95682.44;5033672;28;20195;-79
2022/03/11 05:32:13;;;;;;;10.50;8.27;;;;;;;-4.73;69.43;95679.84;5032705;28;20223;-79
2022/03/11 05:38:02;;;;;;;9.02;6.88;;;;;;;-4.72;68.86;95686.66;5032888;28;20259;-80
2022/03/11 05:40:29;;;;;;;10.52;7.90;;;;;;;-4.72;69.28;95684.09;5032681;28;20239;-80
2022/03/11 05:42:56;;;;;;;14.23;8.70;;;;;;;-4.72;69.97;95696.91;5032588;28;20677;-80
2022/03/11 05:45:24;;;;;;;29.90;9.20;;;;;;;-4.73;70.09;95695.22;5032704;28;20546;-78
2022/03/11 05:47:51;;;;;;;20.00;10.52;;;;;;;-4.72;70.24;95689.22;5032533;28;20666;-79
2022/03/11 05:50:18;;;;;;;10.98;9.07;;;;;;;-4.73;69.82;95687.53;5032704;28;20212;-80
2022/03/11 05:59:29;;;;;;;10.98;8.60;;;;;;;-4.47;69.67;95695.72;5036094;28;20198;-80
2022/03/11 06:01:57;;;;;;;13.63;8.98;;;;;;;-4.34;69.94;95695.53;5047439;28;20195;-79
2022/03/11 06:04:24;;;;;;;10.15;7.53;;;;;;;-4.15;69.32;95697.81;5057220;28;20207;-80
2022/03/11 06:06:51;;;;;;;12.93;7.20;;;;;;;-3.69;69.54;95694.53;5047633;28;20206;-81
2022/03/11 06:09:18;;;;;;;19.02;8.35;;;;;;;-3.01;68.31;95691.56;5037265;28;20559;-81
2022/03/11 06:12:04;;;;;;;9.85;7.28;;;;;;;-2.54;71.43;95695.75;5038400;28;20236;-83
2022/03/11 06:14:31;;;;;;;10.27;7.55;;;;;;;-2.35;69.16;95693.63;5037464;28;20645;-81
2022/03/11 06:16:59;;;;;;;14.80;11.13;;;;;;;-2.38;65.50;95697.09;5048131;28;20211;-80
2022/03/11 06:19:26;;;;;;;11.88;9.38;;;;;;;-2.24;66.80;95696.81;5056556;28;20183;-81
2022/03/11 06:21:55;;;;;;;19.20;10.60;;;;;;;-2.08;63.75;95702.44;5047323;28;20289;-81
2022/03/11 06:24:22;;;;;;;17.75;8.45;;;;;;;-2.01;61.92;95707.44;5037413;28;20533;-83
2022/03/11 06:26:49;;;;;;;10.30;7.70;;;;;;;-1.94;62.17;95710.69;5036872;28;20215;-82
2022/03/11 06:29:16;;;;;;;11.98;7.00;;;;;;;-1.72;61.28;95713.63;5037366;28;20293;-81
2022/03/11 06:31:43;;;;;;;14.40;8.20;;;;;;;-1.64;63.41;95714.28;5035947;28;20581;-82
2022/03/11 06:34:16;;;;;;;14.40;7.72;;;;;;;-1.45;67.60;95719.78;5039087;28;20192;-83
2022/03/11 06:36:43;;;;;;;8.85;7.95;;;;;;;-1.35;65.63;95722.13;5037264;28;20204;-85
2022/03/11 06:39:13;;;;;;;14.27;7.90;;;;;;;-1.44;62.59;95722.38;5035680;28;20217;-85
2022/03/11 06:41:40;;;;;;;11.18;8.40;;;;;;;-1.40;62.50;95729.13;5035871;28;20607;-88
2022/03/11 06:44:07;;;;;;;15.73;8.00;;;;;;;-1.42;62.75;95722.31;5036621;28;20207;-86
2022/03/11 06:46:34;;;;;;;15.30;9.20;;;;;;;-1.42;62.17;95725.75;5036626;28;20204;-84
2022/03/11 06:49:01;;;;;;;18.38;8.68;;;;;;;-1.43;62.06;95724.06;5036285;28;20213;-83
2022/03/11 06:51:30;;;;;;;11.73;8.30;;;;;;;-1.42;65.25;95728.31;5036187;28;20238;-82
2022/03/11 06:53:57;;;;;;;13.82;9.93;;;;;;;-1.38;62.46;95735.06;5036725;28;20290;-81
2022/03/11 06:56:24;;;;;;;12.55;9.25;;;;;;;-1.36;62.69;95727.31;5036317;28;20195;-82
2022/03/11 06:58:51;;;;;;;17.35;10.48;;;;;;;-1.25;63.02;95723.56;5036665;28;20190;-81
2022/03/11 07:01:18;;;;;;;20.52;10.95;;;;;;;-1.20;62.38;95726.03;5036539;28;20208;-81
2022/03/11 07:03:45;;;;;;;18.77;10.95;;;;;;;-1.19;61.87;95734.59;5036336;28;20204;-82
2022/03/11 07:06:12;;;;;;;17.95;10.45;;;;;;;-1.28;61.75;95736.53;5036205;28;20202;-81
2022/03/11 07:08:41;;;;;;;16.58;9.50;;;;;;;-1.22;62.85;95740.66;5035242;28;20192;-81
2022/03/11 07:11:07;;;;;;;13.00;9.80;;;;;;;-1.29;62.69;95737.41;5035691;28;20909;-79
2022/03/11 07:13:34;;;;;;;13.40;8.80;;;;;;;-1.22;64.13;95737.25;5035219;28;20203;-79
2022/03/11 07:16:01;;;;;;;16.77;9.32;;;;;;;-1.12;67.83;95741.28;5035693;28;20555;-80
2022/03/11 07:18:28;;;;;;;19.65;10.30;;;;;;;-1.09;62.84;95747.22;5036702;28;20203;-81
2022/03/11 07:20:55;;;;;;;14.57;8.77;;;;;;;-0.94;63.50;95743.38;5035141;28;20195;-80
2022/03/11 07:23:22;;;;;;;13.95;8.45;;;;;;;-0.70;62.20;95747.88;5034802;28;20211;-79
2022/03/11 07:25:51;;;;;;;15.48;9.75;;;;;;;-0.35;61.72;95746.03;5035162;28;20207;-79
2022/03/11 07:28:20;;;;;;;26.88;14.48;;;;;;;0.09;61.95;95733.56;5034472;28;20722;-81
2022/03/11 07:30:47;;;;;;;18.75;12.13;;;;;;;0.66;60.94;95740.38;5034658;28;20624;-78
2022/03/11 07:33:14;;;;;;;19.10;11.23;;;;;;;1.22;59.21;95730.72;5034750;28;20202;-77
2022/03/11 07:35:41;;;;;;;16.70;10.55;;;;;;;1.75;56.67;95730.53;5034918;28;20638;-78
2022/03/11 07:38:08;;;;;;;19.23;12.45;;;;;;;2.03;57.76;95730.34;5034231;28;20202;-76
2022/03/11 07:40:35;;;;;;;22.23;12.35;;;;;;;2.25;54.61;95728.59;5034245;28;20235;-80
2022/03/11 07:43:04;;;;;;;20.88;13.77;;;;;;;2.28;53.43;95728.47;5034585;28;20544;-78
2022/03/11 07:45:31;;;;;;;17.60;10.90;;;;;;;2.29;52.24;95732.75;5034086;28;20187;-77
2022/03/11 07:47:58;;;;;;;19.50;11.20;;;;;;;2.40;52.39;95727.16;5045428;28;20465;-79
2022/03/11 07:50:25;;;;;;;18.52;12.38;;;;;;;2.33;51.47;95734.34;5034440;28;20800;-79
2022/03/11 07:52:52;;;;;;;22.65;13.73;;;;;;;2.45;52.34;95728.66;5034037;28;20219;-78
2022/03/11 07:55:21;;;;;;;19.13;12.18;;;;;;;2.67;51.72;95733.00;5034001;28;20211;-80
2022/03/11 07:57:48;;;;;;;17.20;12.30;;;;;;;2.42;51.95;95733.97;5034310;28;20210;-80
2022/03/11 08:00:18;;;;;;;18.13;12.43;;;;;;;2.25;52.90;95726.00;5034043;28;20426;-83
2022/03/11 08:02:45;;;;;;;24.80;14.15;;;;;;;1.91;52.79;95738.56;5034044;28;20253;-81
2022/03/11 08:05:14;;;;;;;14.85;10.05;;;;;;;1.01;52.78;95729.72;5033967;28;20632;-82
2022/03/11 08:07:45;;;;;;;11.73;9.10;;;;;;;0.69;53.83;95735.94;5033969;28;20206;-81
2022/03/11 08:10:12;;;;;;;12.25;9.13;;;;;;;0.45;55.56;95742.75;5016301;28;20627;-81
2022/03/11 08:12:39;;;;;;;14.77;11.75;;;;;;;0.44;57.86;95735.91;5033831;28;20231;-78
2022/03/11 08:15:07;;;;;;;16.45;11.15;;;;;;;0.45;57.03;95723.84;5033924;28;20200;-81
2022/03/11 08:17:35;;;;;;;10.63;8.75;;;;;;;0.36;55.93;95742.19;5033720;28;20205;-80
2022/03/11 08:20:02;;;;;;;13.63;9.32;;;;;;;0.53;56.28;95737.34;5033924;28;20248;-81
2022/03/11 08:22:29;;;;;;;19.77;8.88;;;;;;;0.96;54.93;95733.34;5033753;28;20208;-80
2022/03/11 08:24:56;;;;;;;12.85;9.75;;;;;;;1.42;54.35;95725.66;5033708;28;20193;-80
2022/03/11 08:27:23;;;;;;;15.52;10.82;;;;;;;1.93;53.52;95729.00;5033443;28;20605;-81
2022/03/11 08:29:50;;;;;;;18.23;12.35;;;;;;;2.36;52.06;95717.84;5033730;28;20210;-79
2022/03/11 08:32:17;;;;;;;16.45;10.25;;;;;;;2.72;51.05;95729.31;5015205;28;20235;-80
2022/03/11 08:34:45;;;;;;;9.10;7.93;;;;;;;2.84;48.98;95729.69;5034165;28;20287;-79
2022/03/11 08:37:12;;;;;;;13.47;10.80;;;;;;;2.98;49.42;95733.44;5033668;28;20431;-80
2022/03/11 08:39:39;;;;;;;28.67;19.70;;;;;;;3.17;49.28;95733.47;5033218;28;20457;-77
2022/03/11 08:42:06;;;;;;;20.77;15.97;;;;;;;2.96;48.22;95730.06;5033872;28;20484;-76
2022/03/11 08:44:33;;;;;;;10.63;8.63;;;;;;;2.75;48.34;95724.00;5033525;28;20438;-74
2022/03/11 08:47:01;;;;;;;15.17;11.37;;;;;;;2.52;48.30;95729.25;5044357;28;20458;-74
2022/03/11 08:49:28;;;;;;;13.70;10.07;;;;;;;2.53;48.80;95717.16;5033907;28;20445;-75
2022/03/11 08:51:56;;;;;;;12.70;8.63;;;;;;;2.68;48.79;95719.13;5052512;28;20562;-77
2022/03/11 08:54:23;;;;;;;14.50;9.50;;;;;;;2.96;47.41;95721.44;5017168;28;20444;-75
2022/03/11 08:56:52;;;;;;;13.57;9.70;;;;;;;3.23;46.84;95719.44;5052513;28;20448;-77
2022/03/11 08:59:19;;;;;;;9.73;8.80;;;;;;;3.44;46.90;95710.69;5053125;28;20815;-78
2022/03/11 09:01:46;;;;;;;12.27;9.03;;;;;;;3.29;45.52;95716.56;5053658;28;20520;-77
2022/03/11 09:04:13;;;;;;;12.00;9.47;;;;;;;3.00;46.08;95704.84;5053381;28;20468;-78
2022/03/11 09:06:40;;;;;;;13.90;10.73;;;;;;;2.85;47.18;95718.44;5039473;28;20439;-75
2022/03/11 09:09:09;;;;;;;11.53;7.50;;;;;;;2.80;47.15;95710.84;5032566;28;20440;-75
2022/03/11 09:11:36;;;;;;;12.33;8.73;;;;;;;2.56;47.98;95704.91;4998331;28;20775;-75
2022/03/11 09:14:04;;;;;;;13.00;9.00;;;;;;;2.77;47.08;95708.38;5033213;28;20948;-81
2022/03/11 09:16:31;;;;;;;12.57;9.57;;;;;;;2.76;47.21;95706.72;5033059;28;20438;-81
2022/03/11 09:18:59;;;;;;;12.43;8.00;;;;;;;2.87;47.62;95703.66;5038130;28;20834;-80
2022/03/11 09:21:26;;;;;;;11.23;8.67;;;;;;;2.87;45.74;95703.66;5036054;28;20469;-76
2022/03/11 09:23:53;;;;;;;12.67;8.27;;;;;;;2.83;45.03;95704.69;5032806;28;20439;-78
2022/03/11 09:26:21;;;;;;;11.50;8.37;;;;;;;2.83;46.38;95713.31;5032530;28;20450;-79
2022/03/11 09:28:48;;;;;;;12.20;8.07;;;;;;;2.64;46.08;95715.00;5035444;28;20457;-79
2022/03/11 09:31:15;;;;;;;23.10;11.27;;;;;;;2.63;47.17;95715.91;5036660;28;20434;-78
2022/03/11 09:33:42;;;;;;;14.63;10.23;;;;;;;2.17;46.74;95708.19;5036772;28;20504;-78
2022/03/11 09:43:22;;;;;;;14.63;10.77;;;;;;;2.25;48.48;95702.72;5013798;28;20211;-79
2022/03/11 09:45:49;;;;;;;16.50;10.35;;;;;;;2.03;48.89;95707.06;5018526;28;20445;-78
2022/03/11 09:48:17;;;;;;;14.70;10.70;;;;;;;1.86;49.00;95708.53;5036264;28;20202;-79
2022/03/11 09:50:44;;;;;;;14.60;10.75;;;;;;;1.91;49.46;95707.50;5036634;28;20211;-79
2022/03/11 09:53:11;;;;;;;12.35;8.30;;;;;;;1.82;47.69;95709.53;5036040;28;20225;-79
2022/03/11 09:55:39;;;;;;;15.77;9.38;;;;;;;1.84;48.57;95697.41;5036641;28;20202;-79
2022/03/11 09:58:06;;;;;;;14.30;10.20;;;;;;;2.08;47.57;95702.53;5036550;28;20191;-78
2022/03/11 10:07:25;;;;;;;16.20;10.77;;;;;;;1.88;47.55;95702.44;5035441;28;20427;-79
2022/03/11 10:09:53;;;;;;;13.15;9.15;;;;;;;1.71;48.49;95706.50;5036207;28;20198;-78
2022/03/11 10:12:28;;;;;;;16.30;10.18;;;;;;;1.48;44.98;95701.34;5035825;28;20711;-78
2022/03/11 10:15:04;;;;;;;8.65;7.22;;;;;;;1.31;45.30;95698.50;5036269;28;20222;-78
2022/03/11 10:17:38;;;;;;;8.40;7.07;;;;;;;1.10;45.39;95698.38;5017795;28;20207;-79
2022/03/11 10:20:07;;;;;;;10.65;8.00;;;;;;;0.98;46.66;95703.13;5036289;28;20201;-79
2022/03/11 10:22:36;;;;;;;8.85;6.65;;;;;;;0.97;46.59;95697.13;5035997;28;20206;-79
2022/03/11 10:25:08;;;;;;;10.30;7.30;;;;;;;0.90;47.04;95696.50;5036209;28;20313;-80
2022/03/11 10:27:54;;;;;;;10.63;8.00;;;;;;;1.05;46.98;95692.53;5035552;28;20193;-79
2022/03/11 10:30:21;;;;;;;14.80;7.88;;;;;;;0.91;46.59;95692.16;5035716;28;20213;-78
2022/03/11 10:32:52;;;;;;;17.83;8.95;;;;;;;0.89;47.55;95688.81;5035617;28;20235;-78
2022/03/11 10:35:19;;;;;;;10.35;7.75;;;;;;;0.98;48.03;95691.06;5001114;28;20212;-79
2022/03/11 10:38:02;;;;;;;10.73;6.63;;;;;;;1.01;46.04;95695.28;5035442;28;20198;-78
2022/03/11 10:40:30;;;;;;;12.02;6.72;;;;;;;1.10;46.45;95685.44;5016103;28;20203;-79
2022/03/11 10:43:14;;;;;;;8.50;5.90;;;;;;;1.09;44.87;95688.94;5035625;28;20564;-80
2022/03/11 10:45:49;;;;;;;7.88;5.97;;;;;;;1.12;44.92;95683.66;5036335;28;20234;-80
2022/03/11 10:48:17;;;;;;;12.30;7.85;;;;;;;1.22;46.46;95685.03;5035791;28;20220;-80
2022/03/11 10:50:44;;;;;;;9.55;7.80;;;;;;;1.19;44.12;95682.56;5035722;28;20201;-79
2022/03/11 10:53:18;;;;;;;10.95;7.85;;;;;;;1.18;45.77;95678.28;5035220;28;20211;-80
2022/03/11 10:55:45;;;;;;;10.05;6.63;;;;;;;1.13;51.45;95669.81;5016983;28;20197;-80
2022/03/11 10:58:16;;;;;;;7.15;6.45;;;;;;;0.88;46.06;95682.78;5035529;28;20225;-79
2022/03/11 11:00:44;;;;;;;9.02;6.07;;;;;;;1.06;45.59;95673.53;5035615;28;20201;-80
2022/03/11 11:03:14;;;;;;;10.07;7.75;;;;;;;1.45;53.07;95662.69;5034979;28;20203;-81
2022/03/11 11:05:41;;;;;;;6.95;5.60;;;;;;;1.78;50.38;95671.75;5035279;28;20195;-80
2022/03/11 11:08:09;;;;;;;5.70;5.05;;;;;;;1.84;44.17;95673.25;5035168;28;20195;-80
2022/03/11 11:10:41;;;;;;;12.93;7.30;;;;;;;1.91;43.96;95664.34;5035104;28;20210;-80
2022/03/11 11:13:09;;;;;;;9.03;6.90;;;;;;;2.01;44.92;95670.00;5035116;28;20483;-79
2022/03/11 11:15:38;;;;;;;9.83;8.97;;;;;;;2.10;45.52;95660.16;5000528;28;21016;-78
2022/03/11 11:18:13;;;;;;;15.70;10.70;;;;;;;2.34;46.95;95657.50;5034995;28;20423;-79
2022/03/11 11:20:46;;;;;;;12.53;8.00;;;;;;;2.41;45.26;95652.00;5035277;28;20503;-80
2022/03/11 11:23:13;;;;;;;16.97;9.67;;;;;;;2.52;44.70;95659.31;5016266;28;20438;-80
2022/03/11 11:25:43;;;;;;;16.38;11.38;;;;;;;2.58;45.52;95645.28;5034427;28;20957;-78
2022/03/11 11:28:13;;;;;;;11.40;8.70;;;;;;;2.44;45.20;95649.28;5034832;28;20211;-78
2022/03/11 11:30:40;;;;;;;11.20;8.05;;;;;;;2.48;46.76;95644.81;5032754;28;20965;-80
2022/03/11 11:33:08;;;;;;;10.20;7.87;;;;;;;2.41;45.72;95644.22;5000310;28;20234;-80
2022/03/11 11:35:37;;;;;;;15.95;8.00;;;;;;;2.28;43.16;95650.78;5034891;28;20442;-80
2022/03/11 11:38:07;;;;;;;14.38;6.78;;;;;;;2.24;42.65;95646.66;5034222;28;20207;-81
2022/03/11 11:40:37;;;;;;;12.70;8.15;;;;;;;2.20;42.40;95639.06;5034522;28;20253;-80
2022/03/11 11:43:29;;;;;;;11.90;9.40;;;;;;;2.05;42.89;95637.94;5034211;28;20200;-81
2022/03/11 11:46:05;;;;;;;10.18;7.55;;;;;;;1.90;43.33;95636.78;5034504;28;20294;-81
2022/03/11 11:48:58;;;;;;;8.95;7.03;;;;;;;1.69;43.50;95635.03;5035649;28;20654;-80
2022/03/11 11:51:55;;;;;;;16.75;8.00;;;;;;;1.75;44.98;95633.06;5033574;28;20217;-80
2022/03/11 11:54:38;;;;;;;11.93;7.20;;;;;;;1.85;42.95;95634.38;5033826;28;20227;-80
2022/03/11 11:57:05;;;;;;;14.60;7.60;;;;;;;1.77;43.00;95628.69;5034298;28;20282;-80
2022/03/11 12:09:54;;;;;;;19.88;7.78;;;;;;;1.68;55.64;95626.41;5033093;28;20202;-78
2022/03/11 12:12:54;;;;;;;13.02;8.98;;;;;;;1.64;56.16;95630.03;5033815;28;20298;-78
2022/03/11 12:15:24;;;;;;;19.98;9.52;;;;;;;1.73;57.61;95619.31;5011227;28;20901;-81
2022/03/11 12:17:56;;;;;;;17.05;8.88;;;;;;;1.73;60.93;95618.47;5011299;28;20196;-79
2022/03/11 12:20:46;;;;;;;17.48;9.93;;;;;;;1.78;60.92;95626.94;5011885;28;20203;-81
2022/03/11 12:23:19;;;;;;;18.58;10.73;;;;;;;1.80;60.36;95620.78;5011703;28;20192;-83
2022/03/11 12:25:50;;;;;;;21.50;9.85;;;;;;;1.93;56.99;95617.72;5011988;28;20192;-83
2022/03/11 12:28:18;;;;;;;13.53;10.00;;;;;;;2.01;53.33;95620.84;5011913;28;20686;-81
2022/03/11 12:30:56;;;;;;;13.30;10.10;;;;;;;2.08;53.82;95619.72;5012061;28;20440;-84
2022/03/11 12:33:26;;;;;;;14.37;9.00;;;;;;;2.15;51.21;95626.31;5012364;28;20521;-83
2022/03/11 12:35:54;;;;;;;13.18;9.50;;;;;;;2.26;51.61;95612.94;5012344;28;20436;-85
2022/03/11 12:38:23;;;;;;;20.43;8.77;;;;;;;2.33;48.14;95622.16;5012665;28;20222;-84
2022/03/11 12:40:52;;;;;;;28.57;20.23;;;;;;;2.48;50.00;95618.91;5012458;28;21018;-84
2022/03/11 12:43:21;;;;;;;28.90;19.33;;;;;;;2.61;51.07;95616.66;5012241;28;20450;-84
2022/03/11 12:45:50;;;;;;;20.47;11.80;;;;;;;2.68;50.12;95618.09;5012602;28;20435;-84
2022/03/11 12:48:19;;;;;;;14.80;9.87;;;;;;;2.69;47.06;95617.19;5013129;28;20510;-85
2022/03/11 12:50:47;;;;;;;10.13;8.33;;;;;;;2.69;45.78;95618.03;5012834;28;20458;-84
2022/03/11 12:53:15;;;;;;;14.53;9.33;;;;;;;2.57;46.91;95612.50;5028546;28;20961;-84
2022/03/11 12:55:44;;;;;;;11.87;9.47;;;;;;;2.45;45.43;95616.47;5034691;28;20924;-84
2022/03/11 12:58:16;;;;;;;15.95;9.57;;;;;;;2.53;46.31;95616.13;5034532;28;20466;-85
2022/03/11 13:00:45;;;;;;;9.87;7.70;;;;;;;2.64;45.81;95604.44;5034668;28;20658;-85